sensor_id;sensor_type;location;lat;lon;timestamp;pressure;altitude;pressure_sealevel;temperature;humidity
34197;BME280;36594;45.192;5.722;2023-05-10T00:00:26;99123.91;;;26.22;40.13
34197;BME280;36594;45.192;5.722;2023-05-10T00:03:15;99120.09;;;26.25;40.12
34197;BME280;36594;45.192;5.722;2023-05-10T00:06:03;99104.89;;;26.18;40.16
34197;BME280;36594;45.192;5.722;2023-05-10T00:08:52;99098.02;;;26.18;40.11
34197;BME280;36594;45.192;5.722;2023-05-10T00:11:40;99100.78;;;26.20;40.14
34197;BME280;36594;45.192;5.722;2023-05-10T00:14:28;99104.89;;;26.18;40.17
34197;BME280;36594;45.192;5.722;2023-05-10T00:17:17;99095.27;;;26.20;40.18
34197;BME280;36594;45.192;5.722;2023-05-10T00:20:06;99087.02;;;26.20;40.10
34197;BME280;36594;45.192;5.722;2023-05-10T00:22:55;99098.27;;;26.19;40.16
34197;BME280;36594;45.192;5.722;2023-05-10T00:25:43;99106.81;;;26.17;40.21
34197;BME280;36594;45.192;5.722;2023-05-10T00:28:31;99108.47;;;26.16;40.28
34197;BME280;36594;45.192;5.722;2023-05-10T00:31:20;99110.09;;;26.14;40.24
34197;BME280;36594;45.192;5.722;2023-05-10T00:34:08;99110.66;;;26.19;40.18
34197;BME280;36594;45.192;5.722;2023-05-10T00:36:56;99114.53;;;26.18;40.17
34197;BME280;36594;45.192;5.722;2023-05-10T00:39:45;99126.64;;;26.19;40.19
34197;BME280;36594;45.192;5.722;2023-05-10T00:42:33;99128.58;;;26.16;40.25
34197;BME280;36594;45.192;5.722;2023-05-10T00:45:21;99128.56;;;26.19;40.21
34197;BME280;36594;45.192;5.722;2023-05-10T00:48:11;99129.13;;;26.18;40.27
34197;BME280;36594;45.192;5.722;2023-05-10T00:51:00;99130.75;;;26.17;40.25
34197;BME280;36594;45.192;5.722;2023-05-10T00:53:50;99126.92;;;26.18;40.20
34197;BME280;36594;45.192;5.722;2023-05-10T00:56:40;99124.97;;;26.13;40.25
34197;BME280;36594;45.192;5.722;2023-05-10T00:59:29;99124.43;;;26.19;40.23
34197;BME280;36594;45.192;5.722;2023-05-10T01:02:18;99115.35;;;26.16;40.26
34197;BME280;36594;45.192;5.722;2023-05-10T01:05:07;99122.23;;;26.16;40.28
34197;BME280;36594;45.192;5.722;2023-05-10T01:07:56;99115.94;;;26.23;40.19
34197;BME280;36594;45.192;5.722;2023-05-10T01:10:45;99120.31;;;26.21;40.10
34197;BME280;36594;45.192;5.722;2023-05-10T01:13:39;99113.98;;;26.18;40.15
34197;BME280;36594;45.192;5.722;2023-05-10T01:16:32;99112.32;;;26.17;40.13
34197;BME280;36594;45.192;5.722;2023-05-10T01:19:25;99106.26;;;26.15;40.15
34197;BME280;36594;45.192;5.722;2023-05-10T01:22:30;99098.81;;;26.13;40.22
34197;BME280;36594;45.192;5.722;2023-05-10T01:38:04;99099.85;;;26.09;40.29
34197;BME280;36594;45.192;5.722;2023-05-10T01:40:52;99096.88;;;26.11;40.29
34197;BME280;36594;45.192;5.722;2023-05-10T01:43:44;99096.31;;;26.12;40.24
34197;BME280;36594;45.192;5.722;2023-05-10T01:46:35;99095.23;;;26.13;40.22
34197;BME280;36594;45.192;5.722;2023-05-10T01:49:29;99101.50;;;26.08;40.26
34197;BME280;36594;45.192;5.722;2023-05-10T01:52:18;99109.81;;;26.11;40.34
34197;BME280;36594;45.192;5.722;2023-05-10T01:55:11;99112.04;;;26.14;40.30
34197;BME280;36594;45.192;5.722;2023-05-10T01:58:05;99118.63;;;26.13;40.23
34197;BME280;36594;45.192;5.722;2023-05-10T02:00:54;99111.45;;;26.12;40.28
34197;BME280;36594;45.192;5.722;2023-05-10T02:03:45;99107.09;;;26.16;40.20
34197;BME280;36594;45.192;5.722;2023-05-10T02:06:36;99114.80;;;26.14;40.30
34197;BME280;36594;45.192;5.722;2023-05-10T02:09:27;99116.73;;;26.16;40.22
34197;BME280;36594;45.192;5.722;2023-05-10T02:12:18;99114.52;;;26.15;40.23
34197;BME280;36594;45.192;5.722;2023-05-10T02:15:10;99118.66;;;26.18;40.19
34197;BME280;36594;45.192;5.722;2023-05-10T02:18:00;99116.17;;;26.14;40.20
34197;BME280;36594;45.192;5.722;2023-05-10T02:20:51;99110.68;;;26.16;40.19
34197;BME280;36594;45.192;5.722;2023-05-10T02:23:41;99107.34;;;26.14;40.21
34197;BME280;36594;45.192;5.722;2023-05-10T02:26:32;99106.81;;;26.17;40.10
34197;BME280;36594;45.192;5.722;2023-05-10T02:29:24;99100.47;;;26.17;40.13
34197;BME280;36594;45.192;5.722;2023-05-10T02:32:14;99097.72;;;26.17;40.09
34197;BME280;36594;45.192;5.722;2023-05-10T02:35:04;99087.28;;;26.16;40.12
34197;BME280;36594;45.192;5.722;2023-05-10T02:37:54;99088.39;;;26.20;40.05
34197;BME280;36594;45.192;5.722;2023-05-10T02:40:43;99089.45;;;26.17;40.02
34197;BME280;36594;45.192;5.722;2023-05-10T02:43:33;99083.41;;;26.17;40.04
34197;BME280;36594;45.192;5.722;2023-05-10T02:46:24;99085.33;;;26.17;40.11
34197;BME280;36594;45.192;5.722;2023-05-10T02:49:13;99088.64;;;26.19;40.05
34197;BME280;36594;45.192;5.722;2023-05-10T02:52:04;99084.27;;;26.20;40.04
34197;BME280;36594;45.192;5.722;2023-05-10T02:54:55;99088.09;;;26.19;40.03
34197;BME280;36594;45.192;5.722;2023-05-10T02:57:57;99082.31;;;26.16;40.00
34197;BME280;36594;45.192;5.722;2023-05-10T03:00:45;99078.17;;;26.13;40.06
34197;BME280;36594;45.192;5.722;2023-05-10T03:03:34;99078.71;;;26.13;40.09
34197;BME280;36594;45.192;5.722;2023-05-10T03:06:23;99079.25;;;26.12;40.10
34197;BME280;36594;45.192;5.722;2023-05-10T03:09:13;99066.31;;;26.10;40.11
34197;BME280;36594;45.192;5.722;2023-05-10T03:12:33;99072.66;;;26.13;39.95
34197;BME280;36594;45.192;5.722;2023-05-10T03:19:22;99071.27;;;26.11;40.07
34197;BME280;36594;45.192;5.722;2023-05-10T03:21:23;99070.44;;;26.10;40.07
34197;BME280;36594;45.192;5.722;2023-05-10T03:24:15;99067.16;;;26.13;39.99
34197;BME280;36594;45.192;5.722;2023-05-10T03:27:05;99075.16;;;26.17;40.12
34197;BME280;36594;45.192;5.722;2023-05-10T03:29:55;99075.16;;;26.17;40.12
34197;BME280;36594;45.192;5.722;2023-05-10T03:32:44;99078.19;;;26.16;39.82
34197;BME280;36594;45.192;5.722;2023-05-10T03:35:34;99077.36;;;26.18;39.74
34197;BME280;36594;45.192;5.722;2023-05-10T03:38:23;99081.20;;;26.17;39.80
34197;BME280;36594;45.192;5.722;2023-05-10T03:41:12;99075.16;;;26.20;39.62
34197;BME280;36594;45.192;5.722;2023-05-10T03:44:01;99073.79;;;26.20;39.70
34197;BME280;36594;45.192;5.722;2023-05-10T03:46:49;99064.67;;;26.14;39.69
34197;BME280;36594;45.192;5.722;2023-05-10T03:49:38;99064.42;;;26.16;39.72
34197;BME280;36594;45.192;5.722;2023-05-10T03:52:26;99059.17;;;26.17;39.70
34197;BME280;36594;45.192;5.722;2023-05-10T03:55:16;99076.78;;;26.11;39.71
34197;BME280;36594;45.192;5.722;2023-05-10T03:58:04;99076.78;;;26.11;39.79
34197;BME280;36594;45.192;5.722;2023-05-10T04:00:53;99077.04;;;26.12;39.58
34197;BME280;36594;45.192;5.722;2023-05-10T04:03:43;99087.27;;;26.19;39.44
34197;BME280;36594;45.192;5.722;2023-05-10T04:06:33;99081.20;;;26.17;39.29
34197;BME280;36594;45.192;5.722;2023-05-10T04:09:22;99082.34;;;26.21;39.31
34197;BME280;36594;45.192;5.722;2023-05-10T04:12:10;99081.46;;;26.13;39.48
34197;BME280;36594;45.192;5.722;2023-05-10T04:14:58;99086.66;;;26.09;39.54
34197;BME280;36594;45.192;5.722;2023-05-10T04:17:47;99081.40;;;26.07;39.66
34197;BME280;36594;45.192;5.722;2023-05-10T04:20:36;99074.52;;;26.07;39.70
34197;BME280;36594;45.192;5.722;2023-05-10T04:23:24;99113.33;;;26.06;39.02
34197;BME280;36594;45.192;5.722;2023-05-10T04:26:13;99087.92;;;25.91;38.15
34197;BME280;36594;45.192;5.722;2023-05-10T04:29:02;99093.44;;;25.94;38.32
34197;BME280;36594;45.192;5.722;2023-05-10T04:31:51;99103.38;;;26.00;38.30
34197;BME280;36594;45.192;5.722;2023-05-10T04:34:40;99100.09;;;26.03;38.48
34197;BME280;36594;45.192;5.722;2023-05-10T04:37:29;99110.56;;;26.03;38.68
34197;BME280;36594;45.192;5.722;2023-05-10T04:40:17;99119.38;;;26.05;38.83
34197;BME280;36594;45.192;5.722;2023-05-10T04:43:05;99110.58;;;26.06;38.86
34197;BME280;36594;45.192;5.722;2023-05-10T04:46:01;99121.61;;;26.08;38.86
34197;BME280;36594;45.192;5.722;2023-05-10T04:48:45;99106.99;;;26.05;38.92
34197;BME280;36594;45.192;5.722;2023-05-10T04:51:33;99112.48;;;26.03;38.93
34197;BME280;36594;45.192;5.722;2023-05-10T04:54:21;99121.56;;;26.01;38.97
34197;BME280;36594;45.192;5.722;2023-05-10T04:57:10;99118.27;;;26.01;39.01
34197;BME280;36594;45.192;5.722;2023-05-10T04:59:59;99122.39;;;26.01;38.97
34197;BME280;36594;45.192;5.722;2023-05-10T05:02:47;99119.10;;;26.07;38.98
34197;BME280;36594;45.192;5.722;2023-05-10T05:05:35;99117.70;;;26.04;38.98
34197;BME280;36594;45.192;5.722;2023-05-10T05:08:23;99113.04;;;26.05;38.98
34197;BME280;36594;45.192;5.722;2023-05-10T05:11:12;99114.17;;;26.06;38.89
34197;BME280;36594;45.192;5.722;2023-05-10T05:14:01;99123.80;;;26.06;38.91
34197;BME280;36594;45.192;5.722;2023-05-10T05:16:49;99112.80;;;26.06;38.98
34197;BME280;36594;45.192;5.722;2023-05-10T05:19:37;99122.13;;;26.05;39.08
34197;BME280;36594;45.192;5.722;2023-05-10T05:22:26;99108.07;;;25.99;38.89
34197;BME280;36594;45.192;5.722;2023-05-10T05:25:17;99108.07;;;25.99;38.89
34197;BME280;36594;45.192;5.722;2023-05-10T05:28:05;99113.89;;;26.08;39.12
34197;BME280;36594;45.192;5.722;2023-05-10T05:30:54;99125.97;;;26.04;39.27
34197;BME280;36594;45.192;5.722;2023-05-10T05:33:42;99122.66;;;26.02;39.31
34197;BME280;36594;45.192;5.722;2023-05-10T05:36:31;99127.62;;;26.03;39.37
34197;BME280;36594;45.192;5.722;2023-05-10T05:39:19;99138.91;;;26.01;39.45
34197;BME280;36594;45.192;5.722;2023-05-10T05:42:08;99132.03;;;26.01;39.69
34197;BME280;36594;45.192;5.722;2023-05-10T05:44:57;99140.34;;;26.09;39.54
34197;BME280;36594;45.192;5.722;2023-05-10T05:47:45;99148.59;;;26.09;39.40
34197;BME280;36594;45.192;5.722;2023-05-10T05:50:34;99131.25;;;26.08;39.40
34197;BME280;36594;45.192;5.722;2023-05-10T05:53:22;99125.49;;;26.10;39.37
34197;BME280;36594;45.192;5.722;2023-05-10T05:56:11;99153.27;;;26.08;39.30
34197;BME280;36594;45.192;5.722;2023-05-10T05:58:59;99146.65;;;26.09;39.31
34197;BME280;36594;45.192;5.722;2023-05-10T06:01:47;99154.89;;;26.07;39.32
34197;BME280;36594;45.192;5.722;2023-05-10T06:04:35;99140.34;;;26.09;39.20
34197;BME280;36594;45.192;5.722;2023-05-10T06:07:24;99129.08;;;26.11;39.21
34197;BME280;36594;45.192;5.722;2023-05-10T06:10:13;99143.09;;;26.09;39.09
34197;BME280;36594;45.192;5.722;2023-05-10T06:13:01;99135.14;;;26.13;39.07
34197;BME280;36594;45.192;5.722;2023-05-10T06:15:49;99143.08;;;26.06;39.14
34197;BME280;36594;45.192;5.722;2023-05-10T06:18:38;99149.99;;;26.12;39.10
34197;BME280;36594;45.192;5.722;2023-05-10T06:21:26;99163.49;;;26.11;38.96
34197;BME280;36594;45.192;5.722;2023-05-10T06:24:14;99156.61;;;26.11;39.07
34197;BME280;36594;45.192;5.722;2023-05-10T06:27:03;99156.02;;;26.08;39.03
34197;BME280;36594;45.192;5.722;2023-05-10T06:29:51;99143.39;;;26.10;39.05
34197;BME280;36594;45.192;5.722;2023-05-10T06:32:40;99160.98;;;26.09;39.07
34197;BME280;36594;45.192;5.722;2023-05-10T06:35:31;99162.37;;;26.12;38.99
34197;BME280;36594;45.192;5.722;2023-05-10T06:38:20;99165.70;;;26.11;38.99
34197;BME280;36594;45.192;5.722;2023-05-10T06:41:09;99180.27;;;26.12;38.98
34197;BME280;36594;45.192;5.722;2023-05-10T06:43:58;99181.39;;;26.11;38.91
34197;BME280;36594;45.192;5.722;2023-05-10T06:46:46;99178.30;;;26.09;38.97
34197;BME280;36594;45.192;5.722;2023-05-10T06:49:35;99183.25;;;26.07;38.91
34197;BME280;36594;45.192;5.722;2023-05-10T06:52:24;99190.95;;;26.05;38.90
34197;BME280;36594;45.192;5.722;2023-05-10T06:55:12;99182.71;;;26.08;38.89
34197;BME280;36594;45.192;5.722;2023-05-10T06:58:01;99189.29;;;26.02;38.88
34197;BME280;36594;45.192;5.722;2023-05-10T07:00:49;99192.30;;;26.03;38.93
34197;BME280;36594;45.192;5.722;2023-05-10T07:03:37;99189.02;;;26.03;38.92
34197;BME280;36594;45.192;5.722;2023-05-10T07:06:26;99200.58;;;26.05;38.93
34197;BME280;36594;45.192;5.722;2023-05-10T07:09:14;99197.29;;;26.06;38.92
34197;BME280;36594;45.192;5.722;2023-05-10T07:12:04;99196.45;;;26.05;38.88
34197;BME280;36594;45.192;5.722;2023-05-10T07:14:53;99209.68;;;26.06;38.88
34197;BME280;36594;45.192;5.722;2023-05-10T07:17:41;99213.53;;;26.07;38.80
34197;BME280;36594;45.192;5.722;2023-05-10T07:20:29;99213.27;;;26.06;38.88
34197;BME280;36594;45.192;5.722;2023-05-10T07:23:18;99211.08;;;26.08;38.83
34197;BME280;36594;45.192;5.722;2023-05-10T07:26:06;99205.83;;;26.09;38.85
34197;BME280;36594;45.192;5.722;2023-05-10T07:28:55;99218.27;;;26.12;38.91
34197;BME280;36594;45.192;5.722;2023-05-10T07:31:43;99218.02;;;26.11;38.94
34197;BME280;36594;45.192;5.722;2023-05-10T07:34:31;99225.92;;;26.07;38.97
34197;BME280;36594;45.192;5.722;2023-05-10T07:37:20;99228.95;;;26.06;38.93
34197;BME280;36594;45.192;5.722;2023-05-10T07:40:09;99230.34;;;26.08;39.00
34197;BME280;36594;45.192;5.722;2023-05-10T07:42:57;99239.14;;;26.08;38.98
34197;BME280;36594;45.192;5.722;2023-05-10T07:45:47;99235.55;;;26.07;39.02
34197;BME280;36594;45.192;5.722;2023-05-10T07:48:36;99238.05;;;26.06;39.08
34197;BME280;36594;45.192;5.722;2023-05-10T07:51:24;99241.88;;;26.05;39.08
34197;BME280;36594;45.192;5.722;2023-05-10T07:54:13;99237.45;;;26.02;39.07
34197;BME280;36594;45.192;5.722;2023-05-10T07:57:02;99237.45;;;26.04;39.14
34197;BME280;36594;45.192;5.722;2023-05-10T07:59:50;99224.81;;;26.06;39.08
34197;BME280;36594;45.192;5.722;2023-05-10T08:02:39;99232.23;;;26.05;39.13
34197;BME280;36594;45.192;5.722;2023-05-10T08:05:27;99218.77;;;26.06;39.11
34197;BME280;36594;45.192;5.722;2023-05-10T08:08:15;99225.08;;;26.07;39.02
34197;BME280;36594;45.192;5.722;2023-05-10T08:11:04;99215.45;;;26.07;39.11
34197;BME280;36594;45.192;5.722;2023-05-10T08:13:53;99224.81;;;26.06;39.17
34197;BME280;36594;45.192;5.722;2023-05-10T08:16:42;99217.10;;;26.05;39.21
34197;BME280;36594;45.192;5.722;2023-05-10T08:19:30;99225.36;;;26.05;39.22
34197;BME280;36594;45.192;5.722;2023-05-10T08:22:19;99217.94;;;26.06;39.23
34197;BME280;36594;45.192;5.722;2023-05-10T08:25:08;99225.66;;;26.06;39.27
34197;BME280;36594;45.192;5.722;2023-05-10T08:27:56;99216.58;;;26.08;39.25
34197;BME280;36594;45.192;5.722;2023-05-10T08:30:45;99222.61;;;26.05;39.23
34197;BME280;36594;45.192;5.722;2023-05-10T08:33:33;99222.33;;;26.07;39.23
34197;BME280;36594;45.192;5.722;2023-05-10T08:36:21;99214.64;;;26.06;39.23
34197;BME280;36594;45.192;5.722;2023-05-10T08:39:12;99215.72;;;26.05;39.22
34197;BME280;36594;45.192;5.722;2023-05-10T08:42:03;99216.02;;;26.06;39.22
34197;BME280;36594;45.192;5.722;2023-05-10T08:44:53;99216.02;;;26.06;39.25
34197;BME280;36594;45.192;5.722;2023-05-10T08:47:41;99214.64;;;26.06;39.21
34197;BME280;36594;45.192;5.722;2023-05-10T08:50:31;99214.08;;;26.07;39.24
34197;BME280;36594;45.192;5.722;2023-05-10T08:53:22;99233.32;;;26.04;39.16
34197;BME280;36594;45.192;5.722;2023-05-10T08:56:13;99226.44;;;26.04;39.17
34197;BME280;36594;45.192;5.722;2023-05-10T08:59:05;99228.11;;;26.05;39.14
34197;BME280;36594;45.192;5.722;2023-05-10T09:01:55;99237.45;;;26.04;39.16
34197;BME280;36594;45.192;5.722;2023-05-10T09:04:44;99233.08;;;26.06;39.18
34197;BME280;36594;45.192;5.722;2023-05-10T09:07:32;99233.32;;;26.04;39.21
34197;BME280;36594;45.192;5.722;2023-05-10T09:10:21;99237.47;;;26.07;39.13
34197;BME280;36594;45.192;5.722;2023-05-10T09:13:14;99236.09;;;26.07;39.10
34197;BME280;36594;45.192;5.722;2023-05-10T09:16:03;99231.70;;;26.06;38.99
34197;BME280;36594;45.192;5.722;2023-05-10T09:18:52;99242.17;;;26.06;38.98
34197;BME280;36594;45.192;5.722;2023-05-10T09:21:40;99236.93;;;26.07;38.92
34197;BME280;36594;45.192;5.722;2023-05-10T09:24:29;99237.23;;;26.08;38.95
34197;BME280;36594;45.192;5.722;2023-05-10T09:27:26;99236.93;;;26.07;38.85
34197;BME280;36594;45.192;5.722;2023-05-10T09:30:09;99246.30;;;26.06;38.80
34197;BME280;36594;45.192;5.722;2023-05-10T09:32:59;99241.06;;;26.07;38.81
34197;BME280;36594;45.192;5.722;2023-05-10T09:35:47;99232.80;;;26.07;38.73
34197;BME280;36594;45.192;5.722;2023-05-10T09:38:52;99240.25;;;26.09;38.76
34197;BME280;36594;45.192;5.722;2023-05-10T09:41:42;99240.25;;;26.09;38.72
34197;BME280;36594;45.192;5.722;2023-05-10T09:44:32;99243.25;;;26.05;38.65
34197;BME280;36594;45.192;5.722;2023-05-10T09:47:20;99235.81;;;26.03;38.67
34197;BME280;36594;45.192;5.722;2023-05-10T09:50:10;99244.35;;;26.07;38.55
34197;BME280;36594;45.192;5.722;2023-05-10T09:53:01;99233.64;;;26.08;38.48
34197;BME280;36594;45.192;5.722;2023-05-10T09:55:50;99241.06;;;26.07;38.43
34197;BME280;36594;45.192;5.722;2023-05-10T09:58:39;99246.03;;;26.08;38.43
34197;BME280;36594;45.192;5.722;2023-05-10T10:01:28;99247.67;;;26.06;38.46
34197;BME280;36594;45.192;5.722;2023-05-10T10:04:18;99249.59;;;26.06;38.47
34197;BME280;36594;45.192;5.722;2023-05-10T10:07:09;99246.84;;;26.06;38.48
34197;BME280;36594;45.192;5.722;2023-05-10T10:09:59;99252.59;;;26.04;38.47
34197;BME280;36594;45.192;5.722;2023-05-10T10:12:48;99257.55;;;26.05;38.43
34197;BME280;36594;45.192;5.722;2023-05-10T10:15:37;99247.66;;;26.04;38.44
34197;BME280;36594;45.192;5.722;2023-05-10T10:18:26;99242.17;;;26.06;38.42
34197;BME280;36594;45.192;5.722;2023-05-10T10:21:16;99237.45;;;26.04;38.33
34197;BME280;36594;45.192;5.722;2023-05-10T10:24:05;99238.56;;;26.03;38.30
34197;BME280;36594;45.192;5.722;2023-05-10T10:26:56;99238.83;;;26.04;38.30
34197;BME280;36594;45.192;5.722;2023-05-10T10:30:13;99237.75;;;26.05;38.25
34197;BME280;36594;45.192;5.722;2023-05-10T10:36:03;99217.62;;;26.02;38.05
34197;BME280;36594;45.192;5.722;2023-05-10T10:41:53;99232.22;;;26.03;38.22
34197;BME280;36594;45.192;5.722;2023-05-10T10:44:42;99235.51;;;26.02;38.26
34197;BME280;36594;45.192;5.722;2023-05-10T10:47:32;99231.38;;;26.02;38.23
34197;BME280;36594;45.192;5.722;2023-05-10T10:50:20;99230.30;;;26.03;38.12
34197;BME280;36594;45.192;5.722;2023-05-10T10:53:11;99218.45;;;26.03;38.06
34197;BME280;36594;45.192;5.722;2023-05-10T10:56:08;99224.23;;;26.01;38.04
34197;BME280;36594;45.192;5.722;2023-05-10T10:58:59;99204.71;;;26.05;38.00
34197;BME280;36594;45.192;5.722;2023-05-10T11:01:51;99218.18;;;26.04;37.97
34197;BME280;36594;45.192;5.722;2023-05-10T11:04:43;99204.17;;;26.06;38.00
34197;BME280;36594;45.192;5.722;2023-05-10T11:07:33;99204.42;;;26.04;37.95
34197;BME280;36594;45.192;5.722;2023-05-10T11:10:23;99206.36;;;26.04;38.02
34197;BME280;36594;45.192;5.722;2023-05-10T11:13:12;99203.34;;;26.05;38.12
34197;BME280;36594;45.192;5.722;2023-05-10T11:16:18;99207.77;;;26.06;38.20
34197;BME280;36594;45.192;5.722;2023-05-10T11:19:09;99206.39;;;26.06;38.15
34197;BME280;36594;45.192;5.722;2023-05-10T11:24:58;99208.03;;;26.07;38.10
34197;BME280;36594;45.192;5.722;2023-05-10T11:27:50;99202.26;;;26.06;38.03
34197;BME280;36594;45.192;5.722;2023-05-10T11:30:40;99206.39;;;26.06;37.97
34197;BME280;36594;45.192;5.722;2023-05-10T11:33:30;99205.02;;;26.06;37.92
34197;BME280;36594;45.192;5.722;2023-05-10T11:36:21;99200.31;;;26.07;37.87
34197;BME280;36594;45.192;5.722;2023-05-10T11:39:09;99203.08;;;26.09;37.70
34197;BME280;36594;45.192;5.722;2023-05-10T11:41:59;99200.33;;;26.09;37.63
34197;BME280;36594;45.192;5.722;2023-05-10T11:44:47;99207.21;;;26.09;37.73
34197;BME280;36594;45.192;5.722;2023-05-10T11:47:36;99213.88;;;26.11;37.76
34197;BME280;36594;45.192;5.722;2023-05-10T11:50:26;99214.42;;;26.11;37.80
34197;BME280;36594;45.192;5.722;2023-05-10T11:53:15;99218.81;;;26.12;37.84
34197;BME280;36594;45.192;5.722;2023-05-10T11:56:06;99208.92;;;26.11;37.79
34197;BME280;36594;45.192;5.722;2023-05-10T11:58:56;99226.76;;;26.08;37.77
34197;BME280;36594;45.192;5.722;2023-05-10T12:01:45;99218.80;;;26.09;37.87
34197;BME280;36594;45.192;5.722;2023-05-10T12:04:33;99228.11;;;26.05;37.73
34197;BME280;36594;45.192;5.722;2023-05-10T12:07:22;99225.67;;;26.09;37.78
34197;BME280;36594;45.192;5.722;2023-05-10T12:10:12;99230.94;;;26.11;37.75
34197;BME280;36594;45.192;5.722;2023-05-10T12:13:02;99232.88;;;26.13;37.71
34197;BME280;36594;45.192;5.722;2023-05-10T12:15:51;99234.23;;;26.10;37.72
34197;BME280;36594;45.192;5.722;2023-05-10T12:18:40;99232.90;;;26.15;37.66
34197;BME280;36594;45.192;5.722;2023-05-10T12:21:30;99222.70;;;26.13;37.66
34197;BME280;36594;45.192;5.722;2023-05-10T12:24:19;99226.29;;;26.14;37.63
34197;BME280;36594;45.192;5.722;2023-05-10T12:27:08;99220.22;;;26.14;37.62
34197;BME280;36594;45.192;5.722;2023-05-10T12:29:59;99219.11;;;26.13;37.57
34197;BME280;36594;45.192;5.722;2023-05-10T12:32:47;99218.59;;;26.16;37.51
34197;BME280;36594;45.192;5.722;2023-05-10T12:35:49;99229.84;;;26.14;37.53
34197;BME280;36594;45.192;5.722;2023-05-10T12:38:39;99218.84;;;26.14;37.52
34197;BME280;36594;45.192;5.722;2023-05-10T12:41:30;99217.73;;;26.13;37.52
34197;BME280;36594;45.192;5.722;2023-05-10T12:44:19;99214.98;;;26.13;37.50
34197;BME280;36594;45.192;5.722;2023-05-10T12:47:07;99224.62;;;26.13;37.47
34197;BME280;36594;45.192;5.722;2023-05-10T12:49:56;99216.06;;;26.12;37.45
34197;BME280;36594;45.192;5.722;2023-05-10T12:52:44;99215.82;;;26.13;37.44
34197;BME280;36594;45.192;5.722;2023-05-10T12:55:32;99220.78;;;26.14;37.39
34197;BME280;36594;45.192;5.722;2023-05-10T12:58:20;99216.90;;;26.12;37.39
34197;BME280;36594;45.192;5.722;2023-05-10T13:01:08;99216.92;;;26.15;37.40
34197;BME280;36594;45.192;5.722;2023-05-10T13:03:57;99221.87;;;26.13;37.36
34197;BME280;36594;45.192;5.722;2023-05-10T13:06:47;99212.23;;;26.13;37.39
34197;BME280;36594;45.192;5.722;2023-05-10T13:09:36;99219.09;;;26.10;37.41
34197;BME280;36594;45.192;5.722;2023-05-10T13:12:24;99221.03;;;26.12;37.41
34197;BME280;36594;45.192;5.722;2023-05-10T13:15:13;99206.42;;;26.12;37.40
34197;BME280;36594;45.192;5.722;2023-05-10T13:18:01;99201.22;;;26.13;37.39
34197;BME280;36594;45.192;5.722;2023-05-10T13:20:50;99208.42;;;26.16;37.33
34197;BME280;36594;45.192;5.722;2023-05-10T13:23:38;99204.83;;;26.16;37.31
34197;BME280;36594;45.192;5.722;2023-05-10T13:26:27;99200.14;;;26.14;37.29
34197;BME280;36594;45.192;5.722;2023-05-10T13:29:15;99196.01;;;26.14;37.24
34197;BME280;36594;45.192;5.722;2023-05-10T13:32:05;99199.02;;;26.15;37.22
34197;BME280;36594;45.192;5.722;2023-05-10T13:34:54;99191.58;;;26.13;37.22
34197;BME280;36594;45.192;5.722;2023-05-10T13:37:43;99188.55;;;26.14;37.19
34197;BME280;36594;45.192;5.722;2023-05-10T13:40:31;99188.31;;;26.16;37.16
34197;BME280;36594;45.192;5.722;2023-05-10T13:43:19;99189.69;;;26.16;37.16
34197;BME280;36594;45.192;5.722;2023-05-10T13:46:08;99175.36;;;26.14;37.12
34197;BME280;36594;45.192;5.722;2023-05-10T13:48:56;99183.32;;;26.13;37.14
34197;BME280;36594;45.192;5.722;2023-05-10T13:51:45;99176.44;;;26.13;37.10
34197;BME280;36594;45.192;5.722;2023-05-10T13:54:34;99180.05;;;26.16;37.05
34197;BME280;36594;45.192;5.722;2023-05-10T13:57:23;99175.10;;;26.18;36.97
34197;BME280;36594;45.192;5.722;2023-05-10T14:00:12;99172.89;;;26.17;36.85
34197;BME280;36594;45.192;5.722;2023-05-10T14:03:00;99168.76;;;26.17;36.78
34197;BME280;36594;45.192;5.722;2023-05-10T14:05:49;99166.55;;;26.17;36.78
34197;BME280;36594;45.192;5.722;2023-05-10T14:08:37;99156.09;;;26.19;36.67
34197;BME280;36594;45.192;5.722;2023-05-10T14:11:26;99158.05;;;26.18;36.62
34197;BME280;36594;45.192;5.722;2023-05-10T14:14:14;99157.77;;;26.20;36.58
34197;BME280;36594;45.192;5.722;2023-05-10T14:17:02;99161.04;;;26.17;36.54
34197;BME280;36594;45.192;5.722;2023-05-10T14:19:50;99153.08;;;26.18;36.58
34197;BME280;36594;45.192;5.722;2023-05-10T14:22:39;99144.26;;;26.16;36.60
34197;BME280;36594;45.192;5.722;2023-05-10T14:25:27;99127.46;;;26.17;36.65
34197;BME280;36594;45.192;5.722;2023-05-10T14:28:15;99137.11;;;26.20;36.51
34197;BME280;36594;45.192;5.722;2023-05-10T14:31:05;99148.97;;;26.20;36.55
34197;BME280;36594;45.192;5.722;2023-05-10T14:33:53;99146.21;;;26.20;36.58
34197;BME280;36594;45.192;5.722;2023-05-10T14:36:41;99135.73;;;26.20;36.59
34197;BME280;36594;45.192;5.722;2023-05-10T14:39:30;99140.70;;;26.20;36.60
34197;BME280;36594;45.192;5.722;2023-05-10T14:42:18;99148.67;;;26.19;36.63
34197;BME280;36594;45.192;5.722;2023-05-10T14:45:07;99144.30;;;26.21;36.58
34197;BME280;36594;45.192;5.722;2023-05-10T14:47:57;99144.00;;;26.20;36.59
34197;BME280;36594;45.192;5.722;2023-05-10T14:50:46;99134.06;;;26.19;36.58
34197;BME280;36594;45.192;5.722;2023-05-10T14:53:34;99125.56;;;26.20;36.54
34197;BME280;36594;45.192;5.722;2023-05-10T14:56:22;99136.84;;;26.21;36.52
34197;BME280;36594;45.192;5.722;2023-05-10T14:59:11;99139.33;;;26.20;36.47
34197;BME280;36594;45.192;5.722;2023-05-10T15:01:59;99134.06;;;26.19;36.49
34197;BME280;36594;45.192;5.722;2023-05-10T15:04:47;99131.61;;;26.20;36.46
34197;BME280;36594;45.192;5.722;2023-05-10T15:07:36;99141.24;;;26.20;36.41
34197;BME280;36594;45.192;5.722;2023-05-10T15:10:24;99141.24;;;26.20;36.41
34197;BME280;36594;45.192;5.722;2023-05-10T15:13:12;99138.78;;;26.21;36.36
34197;BME280;36594;45.192;5.722;2023-05-10T15:16:00;99131.06;;;26.20;36.40
34197;BME280;36594;45.192;5.722;2023-05-10T15:18:49;99144.30;;;26.21;36.41
34197;BME280;36594;45.192;5.722;2023-05-10T15:21:37;99151.17;;;26.21;36.41